Aviation Digital Data Service (ADDS)

Output produced by METARs form (0140 UTC 22 February 2019)
found at http://www.aviationweather.gov/metar/data/
 
Forecast for: ZSAM (XIAMEN , CN)
Text: TAF ZSAM 211905Z 2200/2224 11004MPS 5000 BR SCT017 BKN030 TX20/2206Z TN14/2221Z
Forecast period: 0000 UTC 22 February 2019 to 0000 UTC 23 February 2019
Forecast type: FROM: standard forecast or significant change
Winds: from the ESE (110 degrees) at 9 MPH (8 knots; 4.1 m/s)
Visibility: 3 miles (5 km)
Ceiling: 3000 feet AGL
Clouds: scattered clouds at 1700 feet AGL
broken clouds at 3000 feet AGL
Weather: BR  (mist)